aviador You're here:

OIAW Decoded Metar

AHWAZ in IRAN
Report Time2017-03-30 17:51:00
UTC Time2017-03-30 18:30:02
Flight Rules vfr VFR
WindCalm
Visibility9999 m
Phenomena:N/A
Clouds:N/A
Expected CloudBase > 4,400 ft AGL from Temp-Dew spread
CeilingNone
Temp23°C (ISA +8)
Dew Point12°C (50% RH)
QNH1014 hPa
Density Alt1,175 ft
Elevation72 ft
Report Wrong Elevation
Raw Report
METAR OIAW 301751Z 00000KT CAVOK 23/12 Q1014=

Extra information for OIAW:More info

Metar Taf Metar & Taf Last 4 Metars F.Rules Stats Wind Profile Meteogram Temp Stats Airport Information Weather charts Add Link Nearby VenuesMetar ALERT Operation Metar Decoded Social comments